createdAt,value
2023-08-30T00:04:31.542Z,8.78
2023-08-30T00:14:34.786Z,8.91
2023-08-30T00:24:39.007Z,8.74
2023-08-30T00:34:41.816Z,8.90
2023-08-30T00:44:45.977Z,9.10
2023-08-30T00:54:49.070Z,8.93
2023-08-30T01:16:15.983Z,9.13
2023-08-30T01:26:29.124Z,9.20
2023-08-30T01:36:33.681Z,9.19
2023-08-30T01:46:37.040Z,9.17
2023-08-30T01:56:41.294Z,9.25
2023-08-30T02:06:48.093Z,9.37
2023-08-30T02:16:52.874Z,9.32
2023-08-30T02:26:56.170Z,9.29
2023-08-30T02:37:00.321Z,9.31
2023-08-30T02:47:03.216Z,9.12
2023-08-30T02:57:07.458Z,9.20
2023-08-30T03:07:10.293Z,8.97
2023-08-30T03:17:14.454Z,9.10
2023-08-30T03:27:17.697Z,8.81
2023-08-30T03:37:21.863Z,9.03
2023-08-30T03:47:24.794Z,9.07
2023-08-30T03:57:28.960Z,9.23
2023-08-30T04:07:31.744Z,9.29
2023-08-30T04:17:35.962Z,9.12
2023-08-30T04:27:38.887Z,9.16
2023-08-30T04:37:43.929Z,9.08
2023-08-30T04:47:47.036Z,9.21
2023-08-30T04:57:51.352Z,9.32
2023-08-30T05:07:54.157Z,9.42
2023-08-30T05:17:58.294Z,9.68
2023-08-30T05:28:01.120Z,9.95
2023-08-30T05:38:05.569Z,10.13
2023-08-30T05:48:08.768Z,10.26
2023-08-30T05:58:13.090Z,10.50
2023-08-30T06:08:15.955Z,10.84
2023-08-30T06:18:20.433Z,10.82
2023-08-30T06:28:23.240Z,11.11
2023-08-30T06:38:27.444Z,11.12
2023-08-30T06:48:30.259Z,11.17
2023-08-30T06:58:34.479Z,11.21
2023-08-30T07:08:37.394Z,11.35
2023-08-30T07:18:41.772Z,11.73
2023-08-30T07:28:44.735Z,12.16
2023-08-30T07:38:48.866Z,12.30
2023-08-30T07:48:52.989Z,12.05
2023-08-30T07:58:57.530Z,12.15
2023-08-30T08:09:00.940Z,12.20
2023-08-30T08:19:05.280Z,12.20
2023-08-30T08:29:08.068Z,12.74
2023-08-30T08:39:12.261Z,13.46
2023-08-30T08:49:16.405Z,13.68
2023-08-30T08:59:21.857Z,13.10
2023-08-30T09:09:24.955Z,13.22
2023-08-30T09:19:29.417Z,13.81
2023-08-30T09:29:32.765Z,14.27
2023-08-30T09:39:37.046Z,14.51
2023-08-30T09:49:45.413Z,14.69
2023-08-30T09:59:50.965Z,14.28
2023-08-30T10:10:09.062Z,14.46
2023-08-30T10:20:14.634Z,15.75
2023-08-30T10:30:18.311Z,16.14
2023-08-30T10:40:23.261Z,16.21
2023-08-30T10:50:36.562Z,15.58
2023-08-30T11:00:42.221Z,16.38
2023-08-30T11:10:45.896Z,16.74
2023-08-30T11:20:50.178Z,17.23
2023-08-30T11:30:55.799Z,16.94
2023-08-30T11:41:00.010Z,17.07
2023-08-30T11:51:02.961Z,16.13
2023-08-30T12:01:07.283Z,15.37
2023-08-30T12:11:19.785Z,15.37
2023-08-30T12:21:23.960Z,15.37
2023-08-30T12:31:28.664Z,16.89
2023-08-30T12:41:34.610Z,17.77
2023-08-30T12:51:37.473Z,18.36
2023-08-30T13:01:41.879Z,17.03
2023-08-30T13:11:44.882Z,18.22
2023-08-30T13:21:49.061Z,18.12
2023-08-30T13:31:51.942Z,18.02
2023-08-30T13:41:56.069Z,18.90
2023-08-30T13:51:58.913Z,19.18
2023-08-30T14:02:05.184Z,18.78
2023-08-30T14:12:08.854Z,18.37
2023-08-30T14:22:13.359Z,18.74
2023-08-30T14:32:16.143Z,17.86
2023-08-30T14:42:20.285Z,17.65
2023-08-30T14:52:23.288Z,16.72
2023-08-30T15:02:27.464Z,17.07
2023-08-30T15:12:30.274Z,18.34
2023-08-30T15:22:34.499Z,19.37
2023-08-30T15:32:37.414Z,18.44
2023-08-30T15:42:42.333Z,17.22
2023-08-30T15:52:45.196Z,17.10
2023-08-30T16:02:52.824Z,16.83
2023-08-30T16:12:55.925Z,18.28
2023-08-30T16:23:00.809Z,16.39
2023-08-30T16:33:03.695Z,16.06
2023-08-30T16:43:08.500Z,15.55
2023-08-30T16:53:11.313Z,15.20
2023-08-30T17:03:15.944Z,14.83
2023-08-30T17:13:19.937Z,14.20
2023-08-30T17:23:24.888Z,13.12
2023-08-30T17:33:28.602Z,12.21
2023-08-30T17:43:32.765Z,11.59
2023-08-30T17:53:36.248Z,11.74
2023-08-30T18:03:40.664Z,11.73
2023-08-30T18:13:44.171Z,11.96
2023-08-30T18:24:14.858Z,11.78
2023-08-30T18:34:18.085Z,10.68
2023-08-30T18:44:22.236Z,9.46
2023-08-30T18:54:25.419Z,9.32
2023-08-30T19:04:33.999Z,9.25
2023-08-30T19:14:37.272Z,9.38
2023-08-30T19:24:41.699Z,9.25
2023-08-30T19:34:44.521Z,9.18
2023-08-30T19:44:48.794Z,9.62
2023-08-30T19:54:52.055Z,9.60
2023-08-30T20:04:56.922Z,9.53
2023-08-30T20:15:00.189Z,9.73
2023-08-30T20:25:04.691Z,9.98
2023-08-30T20:35:08.278Z,9.93
2023-08-30T20:45:12.762Z,9.99
2023-08-30T20:55:19.201Z,9.90
2023-08-30T21:05:28.196Z,9.99
2023-08-30T21:15:31.121Z,9.94
2023-08-30T21:25:39.244Z,9.77
2023-08-30T21:35:43.429Z,9.66
2023-08-30T21:45:47.616Z,9.47
2023-08-30T21:55:50.408Z,9.69
2023-08-30T22:06:01.786Z,9.83
2023-08-30T22:16:04.953Z,9.12
2023-08-30T22:26:09.165Z,8.96
2023-08-30T22:36:11.962Z,9.02
2023-08-30T22:46:16.339Z,8.90
2023-08-30T22:56:19.167Z,8.81
2023-08-30T23:06:23.335Z,8.83
2023-08-30T23:16:26.237Z,8.76
2023-08-30T23:26:30.471Z,8.64
2023-08-30T23:36:33.288Z,8.77
2023-08-30T23:46:38.850Z,8.77
2023-08-30T23:56:41.840Z,8.67
